createdAt,value
2023-01-29T00:04:36.103Z,6.97
2023-01-29T00:09:40.177Z,7.50
2023-01-29T00:15:01.809Z,7.10
2023-01-29T00:20:08.054Z,6.33
2023-01-29T00:25:34.080Z,7.70
2023-01-29T00:30:39.666Z,6.83
2023-01-29T00:35:43.254Z,7.10
2023-01-29T00:41:23.514Z,6.97
2023-01-29T00:46:31.463Z,6.90
2023-01-29T00:51:38.547Z,7.20
2023-01-29T00:56:42.026Z,6.70
2023-01-29T01:02:08.223Z,7.23
2023-01-29T01:07:14.861Z,7.03
2023-01-29T01:12:20.281Z,6.23
2023-01-29T01:17:31.052Z,7.67
2023-01-29T01:22:34.347Z,6.13
2023-01-29T01:27:41.259Z,6.50
2023-01-29T01:32:56.400Z,7.93
2023-01-29T01:38:04.940Z,7.03
2023-01-29T01:43:11.597Z,7.40
2023-01-29T01:48:26.186Z,6.60
2023-01-29T01:53:34.628Z,7.57
2023-01-29T01:58:53.040Z,7.90
2023-01-29T02:04:26.398Z,8.23
2023-01-29T02:09:36.987Z,8.10
2023-01-29T02:14:41.902Z,6.33
2023-01-29T02:19:52.568Z,7.90
2023-01-29T02:25:36.317Z,7.37
2023-01-29T02:30:46.688Z,7.23
2023-01-29T02:36:00.439Z,7.33
2023-01-29T02:41:08.200Z,7.30
2023-01-29T02:46:30.995Z,7.33
2023-01-29T02:51:41.016Z,7.00
2023-01-29T02:56:57.696Z,6.87
2023-01-29T03:02:09.513Z,5.83
2023-01-29T03:07:37.636Z,7.50
2023-01-29T03:12:42.349Z,6.43
2023-01-29T03:17:52.511Z,7.20
2023-01-29T03:23:02.818Z,6.40
2023-01-29T03:28:25.295Z,6.13
2023-01-29T03:33:45.950Z,6.07
2023-01-29T03:38:55.440Z,6.17
2023-01-29T03:44:11.456Z,5.80
2023-01-29T03:49:24.654Z,5.97
2023-01-29T03:54:36.370Z,6.83
2023-01-29T03:59:47.339Z,5.20
2023-01-29T04:04:53.839Z,5.57
2023-01-29T04:10:04.213Z,5.60
2023-01-29T04:15:15.459Z,6.30
2023-01-29T04:20:22.509Z,4.93
2023-01-29T04:25:30.463Z,5.60
2023-01-29T04:30:44.399Z,5.57
2023-01-29T04:36:06.259Z,5.43
2023-01-29T04:41:22.896Z,6.00
2023-01-29T04:46:31.688Z,5.63
2023-01-29T04:51:57.845Z,5.83
2023-01-29T04:57:10.271Z,6.63
2023-01-29T05:02:14.498Z,5.40
2023-01-29T05:07:22.654Z,5.87
2023-01-29T05:12:29.758Z,5.13
2023-01-29T05:17:33.151Z,5.50
2023-01-29T05:22:41.029Z,6.13
2023-01-29T05:28:07.614Z,6.73
2023-01-29T05:33:14.565Z,6.13
2023-01-29T05:38:20.257Z,5.00
2023-01-29T05:43:30.467Z,4.73
2023-01-29T05:48:34.754Z,5.43
2023-01-29T05:53:39.460Z,6.13
2023-01-29T05:58:47.703Z,5.67
2023-01-29T06:03:51.519Z,6.40
2023-01-29T06:08:57.542Z,5.80
2023-01-29T06:14:00.952Z,5.37
2023-01-29T06:19:07.265Z,5.13
2023-01-29T06:24:15.978Z,4.67
2023-01-29T06:29:19.328Z,5.03
2023-01-29T06:34:24.744Z,5.07
2023-01-29T06:39:36.525Z,4.70
2023-01-29T06:44:39.911Z,4.87
2023-01-29T06:49:44.875Z,4.60
2023-01-29T06:54:50.630Z,3.33
2023-01-29T06:59:54.009Z,4.80
2023-01-29T07:04:57.460Z,4.67
2023-01-29T07:10:09.722Z,3.90
2023-01-29T07:15:15.199Z,4.10
2023-01-29T07:20:18.936Z,3.40
2023-01-29T07:25:31.165Z,2.37
2023-01-29T07:30:36.849Z,2.20
2023-01-29T07:35:44.418Z,2.40
2023-01-29T07:40:53.817Z,4.60
2023-01-29T07:45:57.935Z,2.83
2023-01-29T07:51:04.486Z,2.80
2023-01-29T07:56:15.324Z,2.50
2023-01-29T08:01:19.060Z,3.07
2023-01-29T08:06:22.423Z,2.80
2023-01-29T08:11:27.247Z,2.40
2023-01-29T08:16:30.789Z,2.40
2023-01-29T08:21:35.200Z,2.30
2023-01-29T08:26:40.049Z,2.57
2023-01-29T08:31:43.569Z,2.60
2023-01-29T08:36:46.871Z,1.93
2023-01-29T08:41:53.557Z,2.37
2023-01-29T08:46:56.828Z,2.73
2023-01-29T08:52:02.940Z,2.43
2023-01-29T08:57:07.856Z,2.40
2023-01-29T09:02:14.383Z,2.30
2023-01-29T09:07:17.781Z,2.53
2023-01-29T09:12:23.563Z,3.00
2023-01-29T09:17:27.915Z,2.30
2023-01-29T09:22:34.655Z,2.70
2023-01-29T09:27:41.436Z,2.80
2023-01-29T09:32:53.098Z,2.37
2023-01-29T09:37:58.509Z,2.57
2023-01-29T09:43:07.977Z,6.60
2023-01-29T09:48:13.988Z,2.47
2023-01-29T09:53:22.224Z,2.60
2023-01-29T09:58:32.055Z,2.20
2023-01-29T10:04:06.090Z,1.77
2023-01-29T10:09:39.990Z,1.67
2023-01-29T10:14:54.499Z,2.03
2023-01-29T10:20:16.994Z,2.07
2023-01-29T10:25:23.763Z,1.77
2023-01-29T10:30:35.664Z,1.73
2023-01-29T10:35:49.699Z,1.97
2023-01-29T10:41:04.149Z,1.93
2023-01-29T10:46:21.178Z,2.20
2023-01-29T10:51:49.434Z,2.40
2023-01-29T10:57:03.319Z,2.40
2023-01-29T11:02:21.404Z,2.10
2023-01-29T11:07:24.946Z,2.20
2023-01-29T11:12:34.245Z,2.25
2023-01-29T11:17:42.289Z,2.03
2023-01-29T11:22:56.819Z,2.53
2023-01-29T11:28:05.465Z,2.53
2023-01-29T11:33:22.831Z,2.08
2023-01-29T11:38:37.291Z,2.28
2023-01-29T11:43:40.615Z,2.58
2023-01-29T11:48:58.954Z,2.65
2023-01-29T11:54:21.421Z,2.50
2023-01-29T11:59:48.680Z,2.53
2023-01-29T12:04:56.588Z,2.40
2023-01-29T12:10:04.702Z,2.50
2023-01-29T12:15:25.144Z,2.17
2023-01-29T12:20:36.431Z,2.22
2023-01-29T12:25:47.717Z,2.40
2023-01-29T12:31:06.020Z,2.65
2023-01-29T12:36:18.326Z,2.20
2023-01-29T12:41:43.640Z,2.40
2023-01-29T12:47:01.555Z,13.60
2023-01-29T12:52:19.177Z,3.40
2023-01-29T12:57:26.927Z,2.47
2023-01-29T13:02:37.858Z,2.58
2023-01-29T13:07:47.699Z,2.65
2023-01-29T13:12:57.198Z,2.95
2023-01-29T13:18:22.258Z,2.60
2023-01-29T13:23:35.889Z,2.88
2023-01-29T13:28:41.560Z,2.90
2023-01-29T13:33:56.777Z,3.10
2023-01-29T13:39:06.689Z,3.50
2023-01-29T13:44:21.823Z,3.07
2023-01-29T13:49:43.320Z,3.53
2023-01-29T13:54:57.502Z,3.00
2023-01-29T14:00:00.893Z,3.40
2023-01-29T14:05:41.068Z,3.45
2023-01-29T14:11:43.007Z,3.67
2023-01-29T14:16:47.398Z,3.43
2023-01-29T14:22:07.908Z,3.33
2023-01-29T14:27:22.892Z,3.47
2023-01-29T14:32:28.298Z,3.40
2023-01-29T14:37:35.879Z,3.60
2023-01-29T14:42:57.097Z,3.23
2023-01-29T14:48:38.741Z,3.00
2023-01-29T14:53:56.175Z,3.70
2023-01-29T14:59:20.737Z,4.07
2023-01-29T15:04:29.600Z,4.07
2023-01-29T15:09:41.805Z,4.37
2023-01-29T15:14:56.604Z,4.10
2023-01-29T15:20:00.167Z,3.07
2023-01-29T15:25:19.492Z,3.60
2023-01-29T15:30:34.076Z,4.03
2023-01-29T15:35:43.663Z,3.97
2023-01-29T15:40:55.614Z,4.17
2023-01-29T15:46:06.052Z,4.37
2023-01-29T15:51:18.700Z,4.17
2023-01-29T15:56:29.557Z,4.13
2023-01-29T16:01:36.587Z,4.73
2023-01-29T16:06:42.477Z,5.43
2023-01-29T16:11:50.567Z,5.27
2023-01-29T16:16:55.470Z,5.33
2023-01-29T16:22:01.645Z,5.20
2023-01-29T16:27:12.978Z,5.10
2023-01-29T16:32:20.246Z,5.47
2023-01-29T16:37:26.532Z,5.30
2023-01-29T16:42:31.527Z,5.63
2023-01-29T16:47:38.082Z,6.50
2023-01-29T16:53:02.833Z,6.00
2023-01-29T16:58:14.660Z,5.90
2023-01-29T17:03:21.183Z,6.00
2023-01-29T17:08:35.827Z,5.87
2023-01-29T17:13:49.270Z,5.90
2023-01-29T17:18:55.443Z,5.93
2023-01-29T17:24:01.778Z,5.67
2023-01-29T17:29:05.246Z,4.87
2023-01-29T17:34:12.867Z,5.87
2023-01-29T17:39:19.102Z,6.27
2023-01-29T17:44:23.062Z,6.20
2023-01-29T17:49:30.288Z,6.37
2023-01-29T17:54:45.776Z,6.47
2023-01-29T17:59:51.240Z,5.67
2023-01-29T18:04:58.122Z,6.40
2023-01-29T18:10:06.391Z,5.83
2023-01-29T18:15:11.165Z,6.97
2023-01-29T18:20:25.856Z,7.00
2023-01-29T18:25:29.298Z,6.50
2023-01-29T18:30:45.860Z,7.33
2023-01-29T18:35:51.293Z,6.37
2023-01-29T18:41:04.629Z,7.53
2023-01-29T18:46:08.735Z,7.13
2023-01-29T18:51:15.435Z,8.40
2023-01-29T18:56:21.068Z,7.53
2023-01-29T19:01:39.159Z,6.63
2023-01-29T19:06:44.905Z,6.87
2023-01-29T19:11:54.234Z,7.07
2023-01-29T19:17:00.933Z,7.27
2023-01-29T19:22:05.855Z,7.23
2023-01-29T19:27:16.724Z,7.87
2023-01-29T19:32:22.997Z,7.27
2023-01-29T19:37:30.858Z,6.63
2023-01-29T19:42:35.533Z,7.53
2023-01-29T19:47:45.931Z,6.17
2023-01-29T19:52:53.542Z,6.63
2023-01-29T19:57:58.165Z,7.00
2023-01-29T20:03:01.459Z,7.00
2023-01-29T20:08:06.670Z,6.60
2023-01-29T20:13:17.775Z,6.60
2023-01-29T20:18:23.023Z,6.20
2023-01-29T20:23:37.693Z,6.30
2023-01-29T20:28:41.842Z,5.20
2023-01-29T20:33:46.791Z,6.07
2023-01-29T20:38:56.591Z,5.90
2023-01-29T20:43:59.918Z,6.63
2023-01-29T20:49:03.614Z,7.00
2023-01-29T20:54:08.704Z,5.87
2023-01-29T20:59:14.244Z,6.80
2023-01-29T21:04:22.004Z,6.20
2023-01-29T21:09:26.774Z,7.27
2023-01-29T21:14:29.989Z,7.10
2023-01-29T21:19:33.406Z,7.87
2023-01-29T21:24:38.117Z,9.03
2023-01-29T21:29:42.139Z,8.73
2023-01-29T21:34:45.534Z,8.63
2023-01-29T21:39:50.090Z,8.00
2023-01-29T21:44:53.329Z,8.27
2023-01-29T21:49:56.691Z,8.30
2023-01-29T21:55:02.540Z,9.10
2023-01-29T22:00:07.024Z,9.03
2023-01-29T22:05:19.494Z,8.27
2023-01-29T22:10:24.786Z,8.37
2023-01-29T22:15:28.194Z,8.70
2023-01-29T22:20:31.784Z,8.17
2023-01-29T22:25:37.539Z,7.90
2023-01-29T22:30:42.076Z,7.53
2023-01-29T22:35:46.507Z,7.50
2023-01-29T22:40:54.126Z,7.83
2023-01-29T22:45:58.718Z,8.20
2023-01-29T22:51:10.569Z,8.57
2023-01-29T22:56:15.387Z,7.67
2023-01-29T23:01:20.150Z,7.63
2023-01-29T23:06:23.646Z,7.43
2023-01-29T23:11:34.223Z,8.20
2023-01-29T23:16:37.581Z,7.87
2023-01-29T23:21:41.821Z,8.73
2023-01-29T23:27:03.874Z,8.50
2023-01-29T23:32:09.227Z,8.83
2023-01-29T23:37:13.060Z,8.30
2023-01-29T23:42:17.779Z,8.50
2023-01-29T23:47:21.938Z,8.97
2023-01-29T23:52:26.233Z,9.13
2023-01-29T23:57:30.860Z,9.37
